createdAt,value
2022-11-29T00:00:21.802Z,24.70
2022-11-29T00:02:54.588Z,24.68
2022-11-29T00:05:24.862Z,24.57
2022-11-29T00:07:55.116Z,24.54
2022-11-29T00:10:25.210Z,24.49
2022-11-29T00:12:54.983Z,24.44
2022-11-29T00:15:24.757Z,24.40
2022-11-29T00:17:54.549Z,24.39
2022-11-29T00:20:24.612Z,24.40
2022-11-29T00:22:54.364Z,24.40
2022-11-29T00:25:24.435Z,24.34
2022-11-29T00:27:54.637Z,24.23
2022-11-29T00:30:25.531Z,24.27
2022-11-29T00:32:55.499Z,24.17
2022-11-29T00:35:25.493Z,24.23
2022-11-29T00:37:55.250Z,24.23
2022-11-29T00:40:25.088Z,24.14
2022-11-29T00:42:54.869Z,24.12
2022-11-29T00:45:24.828Z,24.13
2022-11-29T00:47:54.563Z,24.05
2022-11-29T00:50:24.560Z,23.96
2022-11-29T00:52:54.316Z,23.96
2022-11-29T00:55:24.491Z,23.99
2022-11-29T00:57:54.226Z,23.95
2022-11-29T01:00:24.360Z,23.98
2022-11-29T01:02:54.154Z,24.00
2022-11-29T01:05:23.977Z,23.89
2022-11-29T01:07:53.929Z,23.82
2022-11-29T01:10:24.282Z,23.75
2022-11-29T01:12:54.472Z,23.71
2022-11-29T01:15:25.374Z,23.54
2022-11-29T01:17:56.137Z,23.51
2022-11-29T01:20:26.092Z,23.51
2022-11-29T01:22:56.372Z,23.51
2022-11-29T01:25:26.586Z,23.48
2022-11-29T01:27:56.382Z,23.52
2022-11-29T01:30:26.985Z,23.50
2022-11-29T01:32:57.041Z,23.42
2022-11-29T01:35:28.085Z,23.41
2022-11-29T01:37:58.558Z,23.40
2022-11-29T01:40:28.306Z,23.45
2022-11-29T01:42:58.088Z,23.40
2022-11-29T01:45:28.512Z,23.38
2022-11-29T01:47:59.589Z,23.41
2022-11-29T01:50:29.949Z,23.34
2022-11-29T01:53:01.779Z,23.31
2022-11-29T01:55:32.341Z,23.25
2022-11-29T01:58:03.003Z,23.24
2022-11-29T02:00:33.811Z,23.22
2022-11-29T02:03:21.501Z,23.17
2022-11-29T02:05:53.617Z,23.11
2022-11-29T02:08:51.952Z,23.04
2022-11-29T02:11:52.614Z,23.03
2022-11-29T02:14:30.837Z,22.96
2022-11-29T02:17:29.590Z,22.86
2022-11-29T02:20:38.290Z,22.82
2022-11-29T02:23:32.564Z,22.73
2022-11-29T02:26:35.621Z,22.69
2022-11-29T02:29:32.436Z,22.66
2022-11-29T02:32:20.615Z,22.57
2022-11-29T02:34:53.910Z,22.60
2022-11-29T02:37:35.543Z,22.53
2022-11-29T02:40:23.543Z,22.52
2022-11-29T02:43:07.358Z,22.42
2022-11-29T02:45:49.713Z,22.39
2022-11-29T02:48:40.082Z,22.38
2022-11-29T02:51:48.695Z,22.28
2022-11-29T02:54:28.042Z,22.33
2022-11-29T02:57:16.946Z,22.32
2022-11-29T02:59:52.584Z,22.28
2022-11-29T03:02:45.910Z,22.22
2022-11-29T03:05:24.272Z,22.15
2022-11-29T03:08:15.895Z,22.08
2022-11-29T03:10:51.514Z,22.11
2022-11-29T03:13:44.717Z,22.08
2022-11-29T03:16:52.822Z,22.19
2022-11-29T03:19:26.125Z,22.15
2022-11-29T03:22:14.518Z,22.05
2022-11-29T03:24:57.491Z,22.00
2022-11-29T03:28:07.549Z,21.97
2022-11-29T03:30:40.086Z,21.94
2022-11-29T03:33:32.695Z,21.93
2022-11-29T03:36:35.823Z,21.94
2022-11-29T03:39:11.230Z,21.87
2022-11-29T03:41:51.647Z,21.84
2022-11-29T03:44:35.400Z,21.90
2022-11-29T03:47:35.270Z,21.85
2022-11-29T03:50:28.665Z,21.80
2022-11-29T03:53:13.232Z,21.75
2022-11-29T03:55:51.932Z,21.71
2022-11-29T03:58:45.899Z,21.70
2022-11-29T04:01:46.051Z,21.67
2022-11-29T04:04:25.433Z,21.68
2022-11-29T04:07:34.148Z,21.65
2022-11-29T04:10:45.541Z,21.67
2022-11-29T04:13:57.274Z,21.61
2022-11-29T04:16:30.138Z,21.57
2022-11-29T04:19:38.790Z,21.47
2022-11-29T04:22:38.829Z,21.47
2022-11-29T04:25:35.928Z,21.36
2022-11-29T04:28:15.471Z,21.27
2022-11-29T04:31:13.249Z,21.13
2022-11-29T04:34:31.049Z,21.10
2022-11-29T04:37:19.973Z,21.06
2022-11-29T04:40:05.377Z,20.84
2022-11-29T04:42:57.495Z,20.79
2022-11-29T04:45:41.598Z,20.67
2022-11-29T04:48:23.085Z,20.48
2022-11-29T04:50:58.452Z,20.34
2022-11-29T04:53:53.033Z,20.21
2022-11-29T04:56:49.157Z,20.16
2022-11-29T04:59:21.929Z,20.10
2022-11-29T05:02:12.794Z,20.00
2022-11-29T05:05:08.626Z,19.97
2022-11-29T05:08:05.653Z,19.80
2022-11-29T05:10:54.169Z,19.67
2022-11-29T05:13:24.515Z,19.66
2022-11-29T05:16:22.848Z,19.63
2022-11-29T05:19:13.786Z,19.93
2022-11-29T05:21:54.450Z,20.12
2022-11-29T05:24:48.467Z,20.16
2022-11-29T05:27:53.395Z,20.38
2022-11-29T05:30:33.565Z,20.41
2022-11-29T05:33:15.781Z,20.48
2022-11-29T05:36:03.485Z,20.47
2022-11-29T05:38:42.414Z,20.43
2022-11-29T05:41:27.014Z,20.47
2022-11-29T05:44:23.851Z,20.40
2022-11-29T05:47:11.274Z,20.21
2022-11-29T05:49:54.446Z,20.00
2022-11-29T05:52:36.742Z,19.86
2022-11-29T05:55:31.481Z,20.10
2022-11-29T05:58:37.385Z,19.87
2022-11-29T06:01:24.567Z,19.87
2022-11-29T06:04:03.016Z,19.70
2022-11-29T06:06:40.766Z,19.59
2022-11-29T06:09:20.641Z,19.55
2022-11-29T06:12:06.597Z,19.46
2022-11-29T06:15:35.694Z,19.36
2022-11-29T06:18:43.766Z,19.28
2022-11-29T06:51:18.137Z,18.47
2022-11-29T06:53:56.252Z,18.45
2022-11-29T06:56:31.740Z,18.35
2022-11-29T06:59:20.880Z,18.30
2022-11-29T07:02:14.184Z,18.24
2022-11-29T07:05:01.496Z,18.25
2022-11-29T07:07:32.789Z,18.21
2022-11-29T07:10:05.619Z,18.21
2022-11-29T07:12:37.592Z,18.19
2022-11-29T07:15:08.019Z,18.06
2022-11-29T07:17:44.653Z,18.01
2022-11-29T07:20:17.790Z,17.97
2022-11-29T07:23:04.521Z,17.97
2022-11-29T07:25:43.299Z,17.94
2022-11-29T07:28:40.884Z,17.82
2022-11-29T07:31:19.312Z,17.85
2022-11-29T07:34:00.755Z,17.85
2022-11-29T07:36:30.637Z,17.85
2022-11-29T07:39:32.490Z,17.77
2022-11-29T07:42:12.422Z,17.77
2022-11-29T07:44:54.715Z,17.67
2022-11-29T07:47:24.718Z,17.66
2022-11-29T07:49:54.922Z,17.67
2022-11-29T07:52:25.154Z,17.68
2022-11-29T07:54:54.899Z,17.68
2022-11-29T07:57:24.650Z,17.71
2022-11-29T07:59:54.426Z,17.60
2022-11-29T08:02:33.231Z,17.58
2022-11-29T08:05:03.633Z,17.57
2022-11-29T08:07:36.974Z,17.54
2022-11-29T08:10:11.745Z,17.53
2022-11-29T08:12:48.572Z,17.53
2022-11-29T08:15:21.544Z,17.43
2022-11-29T08:17:52.294Z,17.30
2022-11-29T08:20:22.337Z,17.34
2022-11-29T08:22:57.502Z,17.43
2022-11-29T08:25:29.210Z,17.39
2022-11-29T08:27:59.544Z,17.40
2022-11-29T08:30:29.408Z,17.22
2022-11-29T08:32:59.506Z,17.26
2022-11-29T08:35:29.374Z,17.29
2022-11-29T08:37:59.217Z,17.33
2022-11-29T08:40:29.476Z,17.37
2022-11-29T08:42:59.830Z,17.39
2022-11-29T08:45:30.102Z,17.37
2022-11-29T08:48:00.015Z,17.34
2022-11-29T08:50:30.405Z,17.37
2022-11-29T08:53:18.576Z,17.44
2022-11-29T08:55:48.587Z,17.43
2022-11-29T08:58:18.857Z,17.34
2022-11-29T09:00:49.914Z,17.46
2022-11-29T09:03:38.095Z,17.48
2022-11-29T09:06:14.722Z,17.57
2022-11-29T09:08:46.322Z,17.60
2022-11-29T09:11:21.064Z,17.64
2022-11-29T09:13:54.182Z,17.73
2022-11-29T09:16:26.809Z,17.75
2022-11-29T09:18:57.239Z,17.94
2022-11-29T09:21:29.264Z,18.33
2022-11-29T09:24:01.921Z,19.32
2022-11-29T09:26:35.974Z,20.20
2022-11-29T09:29:08.692Z,20.82
2022-11-29T09:31:39.422Z,21.29
2022-11-29T09:34:09.319Z,21.54
2022-11-29T09:36:39.187Z,21.93
2022-11-29T09:39:09.072Z,22.28
2022-11-29T09:41:59.743Z,22.70
2022-11-29T09:44:37.990Z,23.08
2022-11-29T09:47:34.248Z,23.21
2022-11-29T09:50:32.013Z,23.66
2022-11-29T09:53:30.901Z,24.00
2022-11-29T09:56:13.978Z,24.46
2022-11-29T09:59:13.003Z,24.78
2022-11-29T10:01:54.231Z,25.25
2022-11-29T10:04:31.198Z,25.07
2022-11-29T10:07:29.726Z,25.18
2022-11-29T10:10:08.368Z,25.80
2022-11-29T10:13:21.505Z,26.20
2022-11-29T10:15:57.229Z,25.43
2022-11-29T10:18:58.067Z,25.40
2022-11-29T10:21:33.868Z,25.53
2022-11-29T10:24:11.168Z,24.87
2022-11-29T10:26:41.286Z,25.33
2022-11-29T10:29:18.391Z,25.18
2022-11-29T10:31:50.596Z,25.11
2022-11-29T10:34:24.578Z,25.71
2022-11-29T10:37:02.509Z,25.54
2022-11-29T10:39:40.809Z,25.59
2022-11-29T10:42:40.543Z,26.05
2022-11-29T10:45:28.647Z,25.63
2022-11-29T10:48:12.125Z,26.18
2022-11-29T10:50:45.473Z,26.83
2022-11-29T10:53:17.995Z,26.76
2022-11-29T10:56:02.699Z,26.83
2022-11-29T10:58:33.314Z,27.17
2022-11-29T11:01:07.938Z,27.61
2022-11-29T11:03:53.051Z,27.58
2022-11-29T11:06:26.878Z,27.24
2022-11-29T11:08:59.286Z,27.85
2022-11-29T11:11:33.619Z,28.15
2022-11-29T11:14:24.643Z,27.22
2022-11-29T11:16:56.759Z,27.20
2022-11-29T11:19:33.642Z,27.33
2022-11-29T11:22:05.661Z,27.06
2022-11-29T11:24:40.861Z,28.22
2022-11-29T11:27:11.418Z,28.04
2022-11-29T11:29:46.126Z,28.06
2022-11-29T11:32:21.368Z,27.71
2022-11-29T11:34:56.942Z,28.42
2022-11-29T11:37:31.461Z,28.22
2022-11-29T11:40:30.298Z,27.59
2022-11-29T11:43:02.858Z,28.67
2022-11-29T11:45:38.054Z,29.25
2022-11-29T11:48:17.938Z,29.05
2022-11-29T11:51:00.526Z,28.80
2022-11-29T11:53:32.255Z,28.29
2022-11-29T11:56:11.961Z,27.82
2022-11-29T11:59:02.802Z,28.01
2022-11-29T12:01:39.409Z,28.08
2022-11-29T12:04:23.944Z,28.04
2022-11-29T12:07:17.449Z,28.42
2022-11-29T12:09:53.404Z,28.80
2022-11-29T12:12:28.217Z,28.83
2022-11-29T12:15:22.116Z,28.75
2022-11-29T12:18:32.471Z,28.77
2022-11-29T12:21:23.502Z,29.62
2022-11-29T12:24:28.148Z,30.14
2022-11-29T12:27:04.801Z,29.58
2022-11-29T12:29:36.845Z,29.73
2022-11-29T12:32:37.621Z,29.66
2022-11-29T12:35:46.087Z,30.18
2022-11-29T12:38:50.230Z,30.00
2022-11-29T12:41:35.018Z,29.53
2022-11-29T12:44:34.457Z,29.96
2022-11-29T12:47:35.109Z,30.42
2022-11-29T12:50:31.205Z,31.47
2022-11-29T12:53:07.405Z,31.71
2022-11-29T12:55:45.592Z,32.18
2022-11-29T12:58:20.163Z,31.00
2022-11-29T13:00:57.191Z,31.41
2022-11-29T13:03:45.842Z,31.60
2022-11-29T13:06:45.309Z,32.84
2022-11-29T13:09:20.888Z,30.99
2022-11-29T13:12:04.929Z,29.08
2022-11-29T13:14:43.063Z,30.13
2022-11-29T13:17:45.654Z,30.76
2022-11-29T13:20:27.571Z,30.91
2022-11-29T13:23:15.946Z,31.27
2022-11-29T13:25:53.043Z,29.31
2022-11-29T13:28:34.215Z,30.49
2022-11-29T13:31:09.191Z,31.02
2022-11-29T13:33:43.300Z,29.83
2022-11-29T13:36:52.277Z,30.75
2022-11-29T13:39:49.950Z,32.73
2022-11-29T13:42:23.088Z,33.38
2022-11-29T13:45:19.825Z,33.13
2022-11-29T13:48:01.478Z,32.93
2022-11-29T13:50:47.848Z,33.76
2022-11-29T13:53:26.833Z,34.61
2022-11-29T13:56:02.973Z,34.06
2022-11-29T13:58:36.123Z,33.98
2022-11-29T14:01:15.794Z,33.82
2022-11-29T14:03:52.548Z,32.39
2022-11-29T14:06:33.429Z,32.09
2022-11-29T14:09:30.265Z,32.31
2022-11-29T14:12:27.139Z,33.00
2022-11-29T14:15:04.426Z,33.35
2022-11-29T14:17:58.559Z,36.23
2022-11-29T14:20:31.027Z,35.75
2022-11-29T14:23:07.737Z,37.40
2022-11-29T14:25:54.983Z,37.12
2022-11-29T14:28:25.189Z,35.94
2022-11-29T14:30:58.313Z,36.09
2022-11-29T14:33:46.682Z,34.27
2022-11-29T14:36:22.423Z,32.87
2022-11-29T14:39:04.556Z,34.10
2022-11-29T14:42:01.709Z,33.67
2022-11-29T14:44:34.512Z,33.45
2022-11-29T14:47:08.542Z,34.90
2022-11-29T14:49:46.631Z,34.08
2022-11-29T14:52:17.494Z,32.97
2022-11-29T14:55:17.280Z,34.86
2022-11-29T14:58:03.069Z,34.84
2022-11-29T15:00:48.419Z,34.84
2022-11-29T15:03:18.344Z,35.51
2022-11-29T15:06:11.720Z,35.18
2022-11-29T15:09:06.091Z,35.71
2022-11-29T15:11:48.073Z,33.95
2022-11-29T15:14:21.901Z,35.38
2022-11-29T15:17:00.888Z,36.94
2022-11-29T15:20:07.074Z,35.56
2022-11-29T15:22:53.452Z,34.43
2022-11-29T15:25:34.369Z,33.99
2022-11-29T15:28:07.840Z,33.30
2022-11-29T15:30:41.423Z,33.23
2022-11-29T15:33:26.162Z,33.82
2022-11-29T15:35:58.456Z,35.21
2022-11-29T15:38:29.681Z,35.53
2022-11-29T15:41:00.028Z,35.24
2022-11-29T15:43:39.957Z,35.07
2022-11-29T15:46:21.049Z,36.21
2022-11-29T15:48:52.100Z,35.71
2022-11-29T15:51:24.916Z,34.74
2022-11-29T15:54:13.113Z,34.31
2022-11-29T15:56:54.061Z,35.68
2022-11-29T15:59:42.721Z,36.70
2022-11-29T16:02:27.697Z,35.66
2022-11-29T16:05:04.585Z,33.79
2022-11-29T16:07:35.357Z,34.31
2022-11-29T16:10:18.886Z,36.85
2022-11-29T16:12:57.741Z,35.97
2022-11-29T16:15:33.509Z,33.53
2022-11-29T16:18:25.109Z,33.27
2022-11-29T16:21:03.468Z,32.79
2022-11-29T16:23:40.449Z,33.41
2022-11-29T16:26:13.507Z,33.92
2022-11-29T16:28:46.003Z,31.37
2022-11-29T16:31:40.856Z,32.36
2022-11-29T16:34:21.238Z,33.74
2022-11-29T16:37:08.533Z,34.01
2022-11-29T16:39:40.620Z,34.08
2022-11-29T16:42:24.861Z,34.26
2022-11-29T16:45:07.205Z,34.16
2022-11-29T16:48:02.753Z,34.27
2022-11-29T16:50:34.302Z,34.19
2022-11-29T16:53:45.372Z,33.96
2022-11-29T16:56:18.525Z,34.63
2022-11-29T16:59:24.555Z,34.42
2022-11-29T17:01:44.219Z,34.12
2022-11-29T17:04:23.393Z,34.20
2022-11-29T17:06:57.905Z,34.88
2022-11-29T17:09:31.562Z,35.24
2022-11-29T17:12:03.280Z,35.25
2022-11-29T17:14:34.443Z,34.64
2022-11-29T17:17:04.768Z,35.08
2022-11-29T17:19:34.605Z,35.22
2022-11-29T17:22:05.397Z,34.73
2022-11-29T17:24:35.755Z,34.15
2022-11-29T17:27:05.743Z,34.37
2022-11-29T17:29:35.554Z,34.17
2022-11-29T17:32:05.749Z,34.86
2022-11-29T17:34:35.937Z,35.07
2022-11-29T17:37:06.047Z,35.05
2022-11-29T17:39:36.106Z,35.31
2022-11-29T17:42:06.245Z,35.31
2022-11-29T17:44:59.777Z,33.72
2022-11-29T17:47:31.374Z,32.43
2022-11-29T17:50:03.084Z,33.54
2022-11-29T17:52:54.728Z,33.35
2022-11-29T17:55:29.400Z,34.23
2022-11-29T17:58:22.303Z,33.11
2022-11-29T18:01:12.287Z,33.82
2022-11-29T18:04:05.625Z,33.58
2022-11-29T18:06:55.007Z,32.46
2022-11-29T18:09:27.743Z,32.52
2022-11-29T18:12:17.238Z,32.55
2022-11-29T18:14:48.028Z,33.13
2022-11-29T18:17:19.428Z,32.76
2022-11-29T18:20:09.406Z,32.49
2022-11-29T18:22:39.135Z,32.99
2022-11-29T18:25:37.697Z,32.80
2022-11-29T18:28:20.735Z,32.68
2022-11-29T18:31:13.560Z,32.51
2022-11-29T18:33:49.464Z,32.43
2022-11-29T18:36:28.427Z,33.27
2022-11-29T18:39:01.650Z,33.20
2022-11-29T18:41:34.456Z,33.89
2022-11-29T18:44:44.167Z,34.23
2022-11-29T18:47:55.503Z,34.09
2022-11-29T18:50:28.552Z,33.81
2022-11-29T18:52:59.738Z,33.85
2022-11-29T18:55:30.822Z,33.72
2022-11-29T18:58:43.225Z,34.25
2022-11-29T19:01:18.543Z,34.10
2022-11-29T19:03:51.722Z,33.08
2022-11-29T19:06:26.370Z,33.16
2022-11-29T19:08:58.142Z,33.43
2022-11-29T19:11:31.642Z,32.84
2022-11-29T19:14:05.069Z,32.17
2022-11-29T19:16:40.104Z,31.37
2022-11-29T19:19:10.410Z,32.08
2022-11-29T19:22:01.283Z,32.86
2022-11-29T19:24:35.250Z,32.69
2022-11-29T19:27:27.206Z,32.62
2022-11-29T19:30:02.005Z,32.56
2022-11-29T19:32:34.141Z,32.29
2022-11-29T19:35:08.358Z,32.09
2022-11-29T19:38:24.506Z,31.56
2022-11-29T19:40:58.234Z,31.13
2022-11-29T19:43:32.167Z,30.99
2022-11-29T19:46:33.070Z,30.34
2022-11-29T19:49:03.892Z,30.16
2022-11-29T19:51:34.777Z,29.90
2022-11-29T19:54:07.345Z,30.21
2022-11-29T19:56:37.915Z,30.51
2022-11-29T19:59:09.971Z,30.57
2022-11-29T20:01:42.555Z,30.79
2022-11-29T20:04:14.450Z,30.49
2022-11-29T20:06:45.787Z,30.60
2022-11-29T20:09:15.949Z,30.54
2022-11-29T20:11:45.990Z,30.35
2022-11-29T20:14:16.206Z,30.38
2022-11-29T20:16:46.577Z,30.33
2022-11-29T20:19:18.368Z,30.52
2022-11-29T20:21:49.820Z,30.55
2022-11-29T20:24:20.605Z,30.44
2022-11-29T20:26:51.312Z,30.49
2022-11-29T20:29:22.949Z,30.28
2022-11-29T20:31:53.147Z,30.41
2022-11-29T20:34:23.531Z,30.47
2022-11-29T20:37:20.097Z,30.40
2022-11-29T20:39:52.948Z,30.31
2022-11-29T20:42:40.758Z,30.25
2022-11-29T20:45:14.582Z,30.31
2022-11-29T20:47:47.040Z,30.12
2022-11-29T20:50:23.838Z,30.03
2022-11-29T20:53:20.233Z,30.10
2022-11-29T20:55:51.216Z,29.97
2022-11-29T20:58:21.291Z,30.03
2022-11-29T21:00:51.117Z,30.02
2022-11-29T21:03:21.840Z,29.94
2022-11-29T21:05:53.288Z,29.87
2022-11-29T21:08:26.942Z,29.70
2022-11-29T21:11:03.853Z,29.58
2022-11-29T21:13:34.867Z,29.58
2022-11-29T21:16:05.615Z,29.53
2022-11-29T21:18:36.402Z,29.58
2022-11-29T21:21:26.440Z,29.59
2022-11-29T21:23:59.041Z,29.72
2022-11-29T21:26:32.332Z,29.67
2022-11-29T21:29:19.691Z,29.66
2022-11-29T21:32:23.285Z,29.66
2022-11-29T21:35:00.369Z,29.70
2022-11-29T21:37:32.298Z,29.61
2022-11-29T21:40:02.214Z,29.58
2022-11-29T21:42:41.562Z,29.51
2022-11-29T21:45:15.974Z,29.42
2022-11-29T21:47:49.703Z,29.38
2022-11-29T21:50:21.381Z,29.26
2022-11-29T21:52:54.617Z,29.15
2022-11-29T21:55:32.349Z,29.03
2022-11-29T21:58:07.689Z,28.94
2022-11-29T22:00:41.347Z,28.91
2022-11-29T22:03:32.598Z,28.22
2022-11-29T22:06:05.459Z,27.82
2022-11-29T22:08:42.384Z,27.47
2022-11-29T22:11:36.416Z,27.10
2022-11-29T22:14:25.478Z,26.56
2022-11-29T22:16:59.071Z,26.25
2022-11-29T22:19:33.521Z,25.81
2022-11-29T22:22:08.175Z,25.43
2022-11-29T22:24:39.585Z,24.89
2022-11-29T22:27:09.332Z,24.51
2022-11-29T22:29:39.928Z,24.03
2022-11-29T22:32:09.989Z,23.69
2022-11-29T22:34:41.205Z,23.58
2022-11-29T22:37:13.581Z,23.34
2022-11-29T22:40:08.339Z,23.03
2022-11-29T22:42:40.889Z,22.82
2022-11-29T22:45:14.291Z,22.73
2022-11-29T22:47:48.877Z,22.64
2022-11-29T22:50:38.906Z,22.32
2022-11-29T22:53:30.054Z,22.26
2022-11-29T22:56:01.674Z,22.24
2022-11-29T22:58:55.777Z,22.41
2022-11-29T23:01:30.066Z,22.33
2022-11-29T23:04:22.592Z,22.43
2022-11-29T23:07:16.904Z,22.62
2022-11-29T23:09:46.756Z,22.63
2022-11-29T23:12:17.590Z,22.73
2022-11-29T23:14:51.570Z,22.67
2022-11-29T23:17:25.027Z,22.67
2022-11-29T23:20:04.623Z,22.64
2022-11-29T23:22:39.750Z,22.49
2022-11-29T23:25:09.814Z,22.45
2022-11-29T23:27:39.788Z,22.46
2022-11-29T23:30:10.103Z,22.39
2022-11-29T23:32:39.605Z,22.32
2022-11-29T23:35:09.332Z,22.43
2022-11-29T23:37:38.844Z,22.56
2022-11-29T23:40:09.295Z,22.57
2022-11-29T23:42:41.357Z,22.62
2022-11-29T23:45:13.697Z,22.74
2022-11-29T23:47:43.232Z,22.86
2022-11-29T23:50:13.180Z,22.76
2022-11-29T23:52:42.703Z,22.74
2022-11-29T23:55:15.630Z,22.74
2022-11-29T23:57:46.714Z,22.92
